sensor_id;sensor_type;location;lat;lon;timestamp;P1;durP1;ratioP1;P2;durP2;ratioP2
78716;SDS011;68045;50.042;14.432;2023-09-12T00:03:59;20.65;;;12.63;;
78716;SDS011;68045;50.042;14.432;2023-09-12T00:08:00;20.08;;;12.52;;
78716;SDS011;68045;50.042;14.432;2023-09-12T00:12:00;19.20;;;11.93;;
78716;SDS011;68045;50.042;14.432;2023-09-12T00:16:01;14.77;;;11.65;;
78716;SDS011;68045;50.042;14.432;2023-09-12T00:20:02;18.00;;;12.43;;
78716;SDS011;68045;50.042;14.432;2023-09-12T00:24:05;16.40;;;12.55;;
78716;SDS011;68045;50.042;14.432;2023-09-12T00:28:06;15.07;;;11.75;;
78716;SDS011;68045;50.042;14.432;2023-09-12T00:32:06;17.50;;;11.38;;
78716;SDS011;68045;50.042;14.432;2023-09-12T00:36:07;16.92;;;12.80;;
78716;SDS011;68045;50.042;14.432;2023-09-12T00:40:08;15.50;;;11.93;;
78716;SDS011;68045;50.042;14.432;2023-09-12T00:44:09;16.30;;;11.93;;
78716;SDS011;68045;50.042;14.432;2023-09-12T00:48:10;17.10;;;11.80;;
78716;SDS011;68045;50.042;14.432;2023-09-12T00:52:13;15.80;;;12.05;;
78716;SDS011;68045;50.042;14.432;2023-09-12T00:56:15;18.00;;;11.80;;
78716;SDS011;68045;50.042;14.432;2023-09-12T01:00:16;16.67;;;12.35;;
78716;SDS011;68045;50.042;14.432;2023-09-12T01:04:16;18.90;;;12.27;;
78716;SDS011;68045;50.042;14.432;2023-09-12T01:08:17;18.13;;;12.98;;
78716;SDS011;68045;50.042;14.432;2023-09-12T01:12:18;21.70;;;12.40;;
78716;SDS011;68045;50.042;14.432;2023-09-12T01:16:19;19.55;;;12.65;;
78716;SDS011;68045;50.042;14.432;2023-09-12T01:20:30;18.77;;;13.45;;
78716;SDS011;68045;50.042;14.432;2023-09-12T01:28:45;15.90;;;11.85;;
78716;SDS011;68045;50.042;14.432;2023-09-12T01:32:48;16.05;;;11.95;;
78716;SDS011;68045;50.042;14.432;2023-09-12T01:36:50;17.73;;;13.32;;
78716;SDS011;68045;50.042;14.432;2023-09-12T01:40:51;17.75;;;12.90;;
78716;SDS011;68045;50.042;14.432;2023-09-12T01:44:56;17.95;;;13.40;;
78716;SDS011;68045;50.042;14.432;2023-09-12T01:48:58;18.02;;;12.98;;
78716;SDS011;68045;50.042;14.432;2023-09-12T01:53:00;17.30;;;13.27;;
78716;SDS011;68045;50.042;14.432;2023-09-12T01:57:03;20.38;;;13.30;;
78716;SDS011;68045;50.042;14.432;2023-09-12T02:01:04;18.60;;;13.43;;
78716;SDS011;68045;50.042;14.432;2023-09-12T02:05:13;18.40;;;12.55;;
78716;SDS011;68045;50.042;14.432;2023-09-12T02:09:18;17.48;;;12.77;;
78716;SDS011;68045;50.042;14.432;2023-09-12T02:13:20;17.60;;;13.20;;
78716;SDS011;68045;50.042;14.432;2023-09-12T02:17:21;18.17;;;13.40;;
78716;SDS011;68045;50.042;14.432;2023-09-12T02:21:23;18.40;;;13.10;;
78716;SDS011;68045;50.042;14.432;2023-09-12T02:25:23;21.55;;;13.90;;
78716;SDS011;68045;50.042;14.432;2023-09-12T02:29:24;17.25;;;12.95;;
78716;SDS011;68045;50.042;14.432;2023-09-12T02:33:25;19.67;;;14.07;;
78716;SDS011;68045;50.042;14.432;2023-09-12T02:37:26;19.75;;;13.68;;
78716;SDS011;68045;50.042;14.432;2023-09-12T02:41:27;18.92;;;14.32;;
78716;SDS011;68045;50.042;14.432;2023-09-12T02:45:28;17.02;;;13.25;;
78716;SDS011;68045;50.042;14.432;2023-09-12T02:49:29;15.65;;;12.50;;
78716;SDS011;68045;50.042;14.432;2023-09-12T02:53:30;17.80;;;12.75;;
78716;SDS011;68045;50.042;14.432;2023-09-12T02:57:30;20.02;;;13.48;;
78716;SDS011;68045;50.042;14.432;2023-09-12T03:01:31;18.25;;;13.18;;
78716;SDS011;68045;50.042;14.432;2023-09-12T03:05:33;17.00;;;13.77;;
78716;SDS011;68045;50.042;14.432;2023-09-12T03:09:33;16.40;;;13.35;;
78716;SDS011;68045;50.042;14.432;2023-09-12T03:13:36;18.30;;;14.25;;
78716;SDS011;68045;50.042;14.432;2023-09-12T03:17:38;18.42;;;13.48;;
78716;SDS011;68045;50.042;14.432;2023-09-12T03:21:38;18.42;;;13.68;;
78716;SDS011;68045;50.042;14.432;2023-09-12T03:25:40;20.33;;;13.57;;
78716;SDS011;68045;50.042;14.432;2023-09-12T03:29:41;19.90;;;13.40;;
78716;SDS011;68045;50.042;14.432;2023-09-12T03:33:42;21.20;;;14.32;;
78716;SDS011;68045;50.042;14.432;2023-09-12T03:37:48;18.75;;;14.30;;
78716;SDS011;68045;50.042;14.432;2023-09-12T03:41:49;16.35;;;13.40;;
78716;SDS011;68045;50.042;14.432;2023-09-12T03:45:50;20.25;;;14.60;;
78716;SDS011;68045;50.042;14.432;2023-09-12T03:49:51;18.63;;;13.48;;
78716;SDS011;68045;50.042;14.432;2023-09-12T03:53:52;19.80;;;14.30;;
78716;SDS011;68045;50.042;14.432;2023-09-12T03:57:54;19.48;;;13.10;;
78716;SDS011;68045;50.042;14.432;2023-09-12T04:01:55;19.85;;;13.32;;
78716;SDS011;68045;50.042;14.432;2023-09-12T04:05:55;18.63;;;14.02;;
78716;SDS011;68045;50.042;14.432;2023-09-12T04:09:56;19.67;;;15.05;;
78716;SDS011;68045;50.042;14.432;2023-09-12T04:13:57;17.10;;;14.45;;
78716;SDS011;68045;50.042;14.432;2023-09-12T04:17:58;21.10;;;14.48;;
78716;SDS011;68045;50.042;14.432;2023-09-12T04:21:59;21.33;;;14.55;;
78716;SDS011;68045;50.042;14.432;2023-09-12T04:26:00;19.00;;;14.63;;
78716;SDS011;68045;50.042;14.432;2023-09-12T04:30:04;28.25;;;15.18;;
78716;SDS011;68045;50.042;14.432;2023-09-12T04:34:06;25.75;;;14.95;;
78716;SDS011;68045;50.042;14.432;2023-09-12T04:38:06;19.90;;;14.35;;
78716;SDS011;68045;50.042;14.432;2023-09-12T04:42:07;20.27;;;14.55;;
78716;SDS011;68045;50.042;14.432;2023-09-12T04:46:08;18.83;;;13.88;;
78716;SDS011;68045;50.042;14.432;2023-09-12T04:50:09;18.33;;;14.43;;
78716;SDS011;68045;50.042;14.432;2023-09-12T04:54:12;26.05;;;14.55;;
78716;SDS011;68045;50.042;14.432;2023-09-12T04:58:13;17.70;;;13.60;;
78716;SDS011;68045;50.042;14.432;2023-09-12T05:02:14;21.83;;;14.57;;
78716;SDS011;68045;50.042;14.432;2023-09-12T05:06:16;21.73;;;15.13;;
78716;SDS011;68045;50.042;14.432;2023-09-12T05:10:17;19.30;;;14.00;;
78716;SDS011;68045;50.042;14.432;2023-09-12T05:14:19;25.98;;;15.85;;
78716;SDS011;68045;50.042;14.432;2023-09-12T05:18:21;25.33;;;15.70;;
78716;SDS011;68045;50.042;14.432;2023-09-12T05:22:22;19.33;;;13.43;;
78716;SDS011;68045;50.042;14.432;2023-09-12T05:26:23;23.00;;;15.15;;
78716;SDS011;68045;50.042;14.432;2023-09-12T05:30:24;22.95;;;15.38;;
78716;SDS011;68045;50.042;14.432;2023-09-12T05:34:25;21.17;;;15.40;;
78716;SDS011;68045;50.042;14.432;2023-09-12T05:38:26;19.25;;;14.90;;
78716;SDS011;68045;50.042;14.432;2023-09-12T05:42:27;21.63;;;15.35;;
78716;SDS011;68045;50.042;14.432;2023-09-12T05:46:28;20.10;;;14.80;;
78716;SDS011;68045;50.042;14.432;2023-09-12T05:50:29;21.48;;;15.30;;
78716;SDS011;68045;50.042;14.432;2023-09-12T05:54:30;20.63;;;14.23;;
78716;SDS011;68045;50.042;14.432;2023-09-12T05:58:31;22.48;;;15.35;;
78716;SDS011;68045;50.042;14.432;2023-09-12T06:02:32;25.13;;;14.73;;
78716;SDS011;68045;50.042;14.432;2023-09-12T06:06:33;20.95;;;14.88;;
78716;SDS011;68045;50.042;14.432;2023-09-12T06:10:34;24.42;;;14.70;;
78716;SDS011;68045;50.042;14.432;2023-09-12T06:14:35;23.85;;;16.45;;
78716;SDS011;68045;50.042;14.432;2023-09-12T06:18:36;22.50;;;16.00;;
78716;SDS011;68045;50.042;14.432;2023-09-12T06:22:37;21.58;;;14.77;;
78716;SDS011;68045;50.042;14.432;2023-09-12T06:26:38;22.35;;;15.68;;
78716;SDS011;68045;50.042;14.432;2023-09-12T06:30:39;23.10;;;15.82;;
78716;SDS011;68045;50.042;14.432;2023-09-12T06:34:41;26.40;;;15.38;;
78716;SDS011;68045;50.042;14.432;2023-09-12T06:38:42;22.67;;;16.40;;
78716;SDS011;68045;50.042;14.432;2023-09-12T06:42:43;24.50;;;14.82;;
78716;SDS011;68045;50.042;14.432;2023-09-12T06:46:44;19.83;;;16.02;;
78716;SDS011;68045;50.042;14.432;2023-09-12T06:50:44;21.92;;;14.48;;
78716;SDS011;68045;50.042;14.432;2023-09-12T06:54:45;20.40;;;14.55;;
78716;SDS011;68045;50.042;14.432;2023-09-12T06:58:47;19.27;;;14.65;;
78716;SDS011;68045;50.042;14.432;2023-09-12T07:02:48;21.08;;;14.38;;
78716;SDS011;68045;50.042;14.432;2023-09-12T07:06:49;20.83;;;13.98;;
78716;SDS011;68045;50.042;14.432;2023-09-12T07:14:54;18.23;;;13.77;;
78716;SDS011;68045;50.042;14.432;2023-09-12T07:18:57;18.80;;;13.77;;
78716;SDS011;68045;50.042;14.432;2023-09-12T07:22:58;18.33;;;13.55;;
78716;SDS011;68045;50.042;14.432;2023-09-12T07:26:59;17.88;;;13.20;;
78716;SDS011;68045;50.042;14.432;2023-09-12T07:31:00;20.25;;;13.20;;
78716;SDS011;68045;50.042;14.432;2023-09-12T07:35:01;15.55;;;12.70;;
78716;SDS011;68045;50.042;14.432;2023-09-12T07:39:02;16.10;;;12.30;;
78716;SDS011;68045;50.042;14.432;2023-09-12T07:43:04;19.35;;;12.25;;
78716;SDS011;68045;50.042;14.432;2023-09-12T07:47:05;17.17;;;12.43;;
78716;SDS011;68045;50.042;14.432;2023-09-12T07:51:15;15.60;;;11.90;;
78716;SDS011;68045;50.042;14.432;2023-09-12T07:55:18;20.42;;;12.18;;
78716;SDS011;68045;50.042;14.432;2023-09-12T07:59:19;17.10;;;12.45;;
78716;SDS011;68045;50.042;14.432;2023-09-12T08:03:20;15.48;;;11.43;;
78716;SDS011;68045;50.042;14.432;2023-09-12T08:07:20;17.73;;;12.18;;
78716;SDS011;68045;50.042;14.432;2023-09-12T08:11:21;18.83;;;12.52;;
78716;SDS011;68045;50.042;14.432;2023-09-12T08:15:22;16.60;;;11.60;;
78716;SDS011;68045;50.042;14.432;2023-09-12T08:19:23;12.70;;;11.40;;
78716;SDS011;68045;50.042;14.432;2023-09-12T08:27:26;12.48;;;9.95;;
78716;SDS011;68045;50.042;14.432;2023-09-12T08:31:27;12.70;;;10.60;;
78716;SDS011;68045;50.042;14.432;2023-09-12T08:35:28;11.70;;;10.50;;
78716;SDS011;68045;50.042;14.432;2023-09-12T08:39:38;11.77;;;9.80;;
78716;SDS011;68045;50.042;14.432;2023-09-12T08:43:42;11.13;;;9.88;;
78716;SDS011;68045;50.042;14.432;2023-09-12T08:47:45;13.02;;;10.13;;
78716;SDS011;68045;50.042;14.432;2023-09-12T08:51:52;15.88;;;10.48;;
78716;SDS011;68045;50.042;14.432;2023-09-12T08:55:53;12.00;;;10.23;;
78716;SDS011;68045;50.042;14.432;2023-09-12T08:59:54;17.38;;;11.15;;
78716;SDS011;68045;50.042;14.432;2023-09-12T09:03:55;11.57;;;10.23;;
78716;SDS011;68045;50.042;14.432;2023-09-12T09:07:57;15.23;;;11.25;;
78716;SDS011;68045;50.042;14.432;2023-09-12T09:11:59;12.38;;;10.02;;
78716;SDS011;68045;50.042;14.432;2023-09-12T09:16:15;12.93;;;9.77;;
78716;SDS011;68045;50.042;14.432;2023-09-12T09:20:24;11.25;;;10.02;;
78716;SDS011;68045;50.042;14.432;2023-09-12T09:24:26;10.93;;;9.82;;
78716;SDS011;68045;50.042;14.432;2023-09-12T09:28:26;12.02;;;10.18;;
78716;SDS011;68045;50.042;14.432;2023-09-12T09:32:28;10.85;;;9.73;;
78716;SDS011;68045;50.042;14.432;2023-09-12T09:40:31;10.93;;;9.73;;
78716;SDS011;68045;50.042;14.432;2023-09-12T09:44:33;11.25;;;9.50;;
78716;SDS011;68045;50.042;14.432;2023-09-12T09:48:34;10.35;;;9.35;;
78716;SDS011;68045;50.042;14.432;2023-09-12T09:52:35;12.93;;;9.35;;
78716;SDS011;68045;50.042;14.432;2023-09-12T10:00:50;10.63;;;8.65;;
78716;SDS011;68045;50.042;14.432;2023-09-12T10:04:51;10.32;;;9.32;;
78716;SDS011;68045;50.042;14.432;2023-09-12T10:08:55;12.60;;;8.32;;
78716;SDS011;68045;50.042;14.432;2023-09-12T10:12:58;10.48;;;9.40;;
78716;SDS011;68045;50.042;14.432;2023-09-12T10:17:00;11.82;;;9.23;;
78716;SDS011;68045;50.042;14.432;2023-09-12T10:21:04;10.02;;;9.02;;
78716;SDS011;68045;50.042;14.432;2023-09-12T10:25:11;11.40;;;9.70;;
78716;SDS011;68045;50.042;14.432;2023-09-12T10:29:13;10.80;;;9.43;;
78716;SDS011;68045;50.042;14.432;2023-09-12T10:33:15;10.88;;;9.13;;
78716;SDS011;68045;50.042;14.432;2023-09-12T10:37:17;11.38;;;9.07;;
78716;SDS011;68045;50.042;14.432;2023-09-12T10:41:22;9.68;;;8.73;;
78716;SDS011;68045;50.042;14.432;2023-09-12T10:45:25;10.32;;;8.60;;
78716;SDS011;68045;50.042;14.432;2023-09-12T10:49:27;13.25;;;8.57;;
78716;SDS011;68045;50.042;14.432;2023-09-12T10:53:28;9.70;;;8.70;;
78716;SDS011;68045;50.042;14.432;2023-09-12T10:57:29;11.15;;;9.00;;
78716;SDS011;68045;50.042;14.432;2023-09-12T11:01:30;10.88;;;8.27;;
78716;SDS011;68045;50.042;14.432;2023-09-12T11:09:34;11.82;;;8.55;;
78716;SDS011;68045;50.042;14.432;2023-09-12T11:13:38;9.30;;;8.15;;
78716;SDS011;68045;50.042;14.432;2023-09-12T11:17:42;9.98;;;8.10;;
78716;SDS011;68045;50.042;14.432;2023-09-12T11:21:44;9.80;;;8.15;;
78716;SDS011;68045;50.042;14.432;2023-09-12T11:25:46;11.05;;;7.85;;
78716;SDS011;68045;50.042;14.432;2023-09-12T11:29:48;11.52;;;7.80;;
78716;SDS011;68045;50.042;14.432;2023-09-12T11:37:50;8.30;;;7.47;;
78716;SDS011;68045;50.042;14.432;2023-09-12T11:42:00;8.57;;;7.53;;
78716;SDS011;68045;50.042;14.432;2023-09-12T11:46:02;11.27;;;7.32;;
78716;SDS011;68045;50.042;14.432;2023-09-12T11:50:03;9.05;;;7.72;;
78716;SDS011;68045;50.042;14.432;2023-09-12T11:54:04;9.75;;;8.13;;
78716;SDS011;68045;50.042;14.432;2023-09-12T11:58:05;8.95;;;8.05;;
78716;SDS011;68045;50.042;14.432;2023-09-12T12:02:10;8.82;;;7.53;;
78716;SDS011;68045;50.042;14.432;2023-09-12T12:06:11;9.25;;;8.10;;
78716;SDS011;68045;50.042;14.432;2023-09-12T12:10:13;14.85;;;8.23;;
78716;SDS011;68045;50.042;14.432;2023-09-12T12:14:14;8.55;;;7.65;;
78716;SDS011;68045;50.042;14.432;2023-09-12T12:18:16;10.23;;;8.52;;
78716;SDS011;68045;50.042;14.432;2023-09-12T12:26:18;10.68;;;8.43;;
78716;SDS011;68045;50.042;14.432;2023-09-12T12:34:22;10.80;;;8.15;;
78716;SDS011;68045;50.042;14.432;2023-09-12T12:38:23;8.77;;;7.88;;
78716;SDS011;68045;50.042;14.432;2023-09-12T12:42:24;13.10;;;8.70;;
78716;SDS011;68045;50.042;14.432;2023-09-12T12:46:26;10.63;;;8.52;;
78716;SDS011;68045;50.042;14.432;2023-09-12T12:50:27;9.38;;;7.80;;
78716;SDS011;68045;50.042;14.432;2023-09-12T12:54:31;10.88;;;8.40;;
78716;SDS011;68045;50.042;14.432;2023-09-12T12:58:33;9.15;;;8.25;;
78716;SDS011;68045;50.042;14.432;2023-09-12T13:02:35;9.55;;;8.05;;
78716;SDS011;68045;50.042;14.432;2023-09-12T13:06:37;9.90;;;8.23;;
78716;SDS011;68045;50.042;14.432;2023-09-12T13:10:38;10.23;;;7.30;;
78716;SDS011;68045;50.042;14.432;2023-09-12T13:14:39;9.45;;;7.47;;
78716;SDS011;68045;50.042;14.432;2023-09-12T13:18:40;10.57;;;7.43;;
78716;SDS011;68045;50.042;14.432;2023-09-12T13:22:41;12.63;;;8.63;;
78716;SDS011;68045;50.042;14.432;2023-09-12T13:26:43;8.98;;;7.63;;
78716;SDS011;68045;50.042;14.432;2023-09-12T13:30:44;9.32;;;8.23;;
78716;SDS011;68045;50.042;14.432;2023-09-12T13:34:45;8.65;;;7.75;;
78716;SDS011;68045;50.042;14.432;2023-09-12T13:38:46;10.50;;;8.00;;
78716;SDS011;68045;50.042;14.432;2023-09-12T13:42:48;9.98;;;7.95;;
78716;SDS011;68045;50.042;14.432;2023-09-12T13:46:49;9.63;;;7.60;;
78716;SDS011;68045;50.042;14.432;2023-09-12T13:50:51;9.52;;;7.72;;
78716;SDS011;68045;50.042;14.432;2023-09-12T13:54:51;12.27;;;7.93;;
78716;SDS011;68045;50.042;14.432;2023-09-12T13:58:52;11.32;;;7.63;;
78716;SDS011;68045;50.042;14.432;2023-09-12T14:02:53;9.48;;;7.43;;
78716;SDS011;68045;50.042;14.432;2023-09-12T14:10:54;8.83;;;7.37;;
78716;SDS011;68045;50.042;14.432;2023-09-12T14:14:55;9.80;;;7.88;;
78716;SDS011;68045;50.042;14.432;2023-09-12T14:18:56;11.25;;;7.78;;
78716;SDS011;68045;50.042;14.432;2023-09-12T14:22:58;9.43;;;7.10;;
78716;SDS011;68045;50.042;14.432;2023-09-12T14:26:59;10.32;;;7.47;;
78716;SDS011;68045;50.042;14.432;2023-09-12T14:31:00;11.60;;;7.45;;
78716;SDS011;68045;50.042;14.432;2023-09-12T14:35:04;9.45;;;6.85;;
78716;SDS011;68045;50.042;14.432;2023-09-12T14:39:05;8.55;;;7.20;;
78716;SDS011;68045;50.042;14.432;2023-09-12T14:43:07;10.40;;;8.15;;
78716;SDS011;68045;50.042;14.432;2023-09-12T14:47:07;8.45;;;7.57;;
78716;SDS011;68045;50.042;14.432;2023-09-12T14:51:08;10.50;;;8.02;;
78716;SDS011;68045;50.042;14.432;2023-09-12T14:55:09;8.10;;;7.20;;
78716;SDS011;68045;50.042;14.432;2023-09-12T14:59:11;11.32;;;7.20;;
78716;SDS011;68045;50.042;14.432;2023-09-12T15:03:13;12.60;;;7.60;;
78716;SDS011;68045;50.042;14.432;2023-09-12T15:07:14;7.85;;;7.03;;
78716;SDS011;68045;50.042;14.432;2023-09-12T15:11:15;11.25;;;7.13;;
78716;SDS011;68045;50.042;14.432;2023-09-12T15:15:16;8.52;;;7.38;;
78716;SDS011;68045;50.042;14.432;2023-09-12T15:19:17;10.10;;;7.50;;
78716;SDS011;68045;50.042;14.432;2023-09-12T15:23:18;9.48;;;7.40;;
78716;SDS011;68045;50.042;14.432;2023-09-12T15:27:19;11.93;;;8.27;;
78716;SDS011;68045;50.042;14.432;2023-09-12T15:31:21;11.05;;;8.15;;
78716;SDS011;68045;50.042;14.432;2023-09-12T15:35:23;10.27;;;8.10;;
78716;SDS011;68045;50.042;14.432;2023-09-12T15:39:23;10.77;;;7.35;;
78716;SDS011;68045;50.042;14.432;2023-09-12T15:43:24;9.90;;;7.93;;
78716;SDS011;68045;50.042;14.432;2023-09-12T15:47:25;9.00;;;7.45;;
78716;SDS011;68045;50.042;14.432;2023-09-12T15:51:25;11.73;;;8.15;;
78716;SDS011;68045;50.042;14.432;2023-09-12T15:55:27;9.02;;;8.10;;
78716;SDS011;68045;50.042;14.432;2023-09-12T15:59:28;13.00;;;8.18;;
78716;SDS011;68045;50.042;14.432;2023-09-12T16:03:33;13.80;;;8.20;;
78716;SDS011;68045;50.042;14.432;2023-09-12T16:07:34;12.50;;;7.50;;
78716;SDS011;68045;50.042;14.432;2023-09-12T16:11:35;10.40;;;7.80;;
78716;SDS011;68045;50.042;14.432;2023-09-12T16:15:36;8.95;;;7.97;;
78716;SDS011;68045;50.042;14.432;2023-09-12T16:19:37;9.32;;;8.18;;
78716;SDS011;68045;50.042;14.432;2023-09-12T16:23:38;10.32;;;7.72;;
78716;SDS011;68045;50.042;14.432;2023-09-12T16:27:39;11.32;;;8.77;;
78716;SDS011;68045;50.042;14.432;2023-09-12T16:31:39;12.88;;;8.65;;
78716;SDS011;68045;50.042;14.432;2023-09-12T16:35:41;11.55;;;7.68;;
78716;SDS011;68045;50.042;14.432;2023-09-12T16:39:42;11.40;;;7.50;;
78716;SDS011;68045;50.042;14.432;2023-09-12T16:43:43;11.75;;;7.78;;
78716;SDS011;68045;50.042;14.432;2023-09-12T16:47:44;10.52;;;8.43;;
78716;SDS011;68045;50.042;14.432;2023-09-12T16:51:44;13.00;;;8.98;;
78716;SDS011;68045;50.042;14.432;2023-09-12T16:55:45;12.85;;;8.38;;
78716;SDS011;68045;50.042;14.432;2023-09-12T16:59:46;11.70;;;8.73;;
78716;SDS011;68045;50.042;14.432;2023-09-12T17:03:47;13.10;;;8.98;;
78716;SDS011;68045;50.042;14.432;2023-09-12T17:07:59;12.15;;;8.77;;
78716;SDS011;68045;50.042;14.432;2023-09-12T17:11:59;12.98;;;8.77;;
78716;SDS011;68045;50.042;14.432;2023-09-12T17:16:00;9.52;;;8.52;;
78716;SDS011;68045;50.042;14.432;2023-09-12T17:20:01;13.95;;;9.07;;
78716;SDS011;68045;50.042;14.432;2023-09-12T17:24:02;10.95;;;8.63;;
78716;SDS011;68045;50.042;14.432;2023-09-12T17:28:03;9.70;;;7.97;;
78716;SDS011;68045;50.042;14.432;2023-09-12T17:32:08;12.80;;;8.90;;
78716;SDS011;68045;50.042;14.432;2023-09-12T17:36:10;11.02;;;7.72;;
78716;SDS011;68045;50.042;14.432;2023-09-12T17:40:11;10.48;;;8.68;;
78716;SDS011;68045;50.042;14.432;2023-09-12T17:44:11;11.07;;;8.80;;
78716;SDS011;68045;50.042;14.432;2023-09-12T17:48:12;14.77;;;9.35;;
78716;SDS011;68045;50.042;14.432;2023-09-12T17:52:13;13.13;;;9.68;;
78716;SDS011;68045;50.042;14.432;2023-09-12T17:56:14;13.43;;;9.18;;
78716;SDS011;68045;50.042;14.432;2023-09-12T18:00:15;12.95;;;8.43;;
78716;SDS011;68045;50.042;14.432;2023-09-12T18:04:16;14.75;;;8.32;;
78716;SDS011;68045;50.042;14.432;2023-09-12T18:08:17;20.92;;;10.77;;
78716;SDS011;68045;50.042;14.432;2023-09-12T18:12:18;19.42;;;8.68;;
78716;SDS011;68045;50.042;14.432;2023-09-12T18:16:19;12.60;;;9.40;;
78716;SDS011;68045;50.042;14.432;2023-09-12T18:20:20;12.82;;;10.05;;
78716;SDS011;68045;50.042;14.432;2023-09-12T18:24:21;14.65;;;9.02;;
78716;SDS011;68045;50.042;14.432;2023-09-12T18:28:35;12.05;;;9.07;;
78716;SDS011;68045;50.042;14.432;2023-09-12T18:32:44;15.02;;;9.23;;
78716;SDS011;68045;50.042;14.432;2023-09-12T18:36:44;16.88;;;10.38;;
78716;SDS011;68045;50.042;14.432;2023-09-12T18:40:45;14.32;;;10.40;;
78716;SDS011;68045;50.042;14.432;2023-09-12T18:44:46;13.93;;;8.82;;
78716;SDS011;68045;50.042;14.432;2023-09-12T18:48:47;14.02;;;9.88;;
78716;SDS011;68045;50.042;14.432;2023-09-12T18:52:47;10.45;;;8.88;;
78716;SDS011;68045;50.042;14.432;2023-09-12T18:56:51;12.55;;;9.55;;
78716;SDS011;68045;50.042;14.432;2023-09-12T19:00:52;13.60;;;9.57;;
78716;SDS011;68045;50.042;14.432;2023-09-12T19:04:52;13.60;;;9.00;;
78716;SDS011;68045;50.042;14.432;2023-09-12T19:08:53;13.40;;;9.23;;
78716;SDS011;68045;50.042;14.432;2023-09-12T19:12:54;12.68;;;9.48;;
78716;SDS011;68045;50.042;14.432;2023-09-12T19:16:56;11.35;;;9.07;;
78716;SDS011;68045;50.042;14.432;2023-09-12T19:20:57;11.50;;;9.40;;
78716;SDS011;68045;50.042;14.432;2023-09-12T19:24:57;16.58;;;10.40;;
78716;SDS011;68045;50.042;14.432;2023-09-12T19:28:58;13.25;;;10.90;;
78716;SDS011;68045;50.042;14.432;2023-09-12T19:32:59;14.75;;;10.65;;
78716;SDS011;68045;50.042;14.432;2023-09-12T19:37:00;16.10;;;10.00;;
78716;SDS011;68045;50.042;14.432;2023-09-12T19:41:01;15.68;;;10.95;;
78716;SDS011;68045;50.042;14.432;2023-09-12T19:45:02;15.75;;;11.23;;
78716;SDS011;68045;50.042;14.432;2023-09-12T19:49:03;21.02;;;10.60;;
78716;SDS011;68045;50.042;14.432;2023-09-12T19:53:04;15.25;;;10.63;;
78716;SDS011;68045;50.042;14.432;2023-09-12T19:57:06;15.70;;;11.68;;
78716;SDS011;68045;50.042;14.432;2023-09-12T20:01:07;16.10;;;11.15;;
78716;SDS011;68045;50.042;14.432;2023-09-12T20:05:08;17.00;;;10.95;;
78716;SDS011;68045;50.042;14.432;2023-09-12T20:13:11;14.75;;;10.95;;
78716;SDS011;68045;50.042;14.432;2023-09-12T20:17:12;15.20;;;10.80;;
78716;SDS011;68045;50.042;14.432;2023-09-12T20:21:13;20.20;;;10.57;;
78716;SDS011;68045;50.042;14.432;2023-09-12T20:25:14;15.52;;;10.25;;
78716;SDS011;68045;50.042;14.432;2023-09-12T20:29:15;14.80;;;10.77;;
78716;SDS011;68045;50.042;14.432;2023-09-12T20:33:16;19.23;;;11.55;;
78716;SDS011;68045;50.042;14.432;2023-09-12T20:37:17;13.77;;;10.13;;
78716;SDS011;68045;50.042;14.432;2023-09-12T20:41:18;14.40;;;10.27;;
78716;SDS011;68045;50.042;14.432;2023-09-12T20:45:18;13.38;;;9.98;;
78716;SDS011;68045;50.042;14.432;2023-09-12T20:49:19;16.35;;;10.63;;
78716;SDS011;68045;50.042;14.432;2023-09-12T20:53:20;16.67;;;10.68;;
78716;SDS011;68045;50.042;14.432;2023-09-12T20:57:21;15.70;;;11.10;;
78716;SDS011;68045;50.042;14.432;2023-09-12T21:01:22;14.77;;;10.90;;
78716;SDS011;68045;50.042;14.432;2023-09-12T21:05:23;15.35;;;11.13;;
78716;SDS011;68045;50.042;14.432;2023-09-12T21:09:24;14.95;;;10.90;;
78716;SDS011;68045;50.042;14.432;2023-09-12T21:13:25;16.02;;;10.20;;
78716;SDS011;68045;50.042;14.432;2023-09-12T21:17:26;17.33;;;10.20;;
78716;SDS011;68045;50.042;14.432;2023-09-12T21:21:27;13.35;;;9.90;;
78716;SDS011;68045;50.042;14.432;2023-09-12T21:25:28;13.80;;;10.25;;
78716;SDS011;68045;50.042;14.432;2023-09-12T21:29:29;14.63;;;10.18;;
78716;SDS011;68045;50.042;14.432;2023-09-12T21:33:30;16.92;;;9.75;;
78716;SDS011;68045;50.042;14.432;2023-09-12T21:37:31;13.77;;;9.20;;
78716;SDS011;68045;50.042;14.432;2023-09-12T21:41:33;14.68;;;10.43;;
78716;SDS011;68045;50.042;14.432;2023-09-12T21:45:34;12.52;;;9.23;;
78716;SDS011;68045;50.042;14.432;2023-09-12T21:49:34;11.73;;;9.23;;
78716;SDS011;68045;50.042;14.432;2023-09-12T21:53:35;13.43;;;10.82;;
78716;SDS011;68045;50.042;14.432;2023-09-12T21:57:36;14.68;;;10.23;;
78716;SDS011;68045;50.042;14.432;2023-09-12T22:01:37;15.00;;;10.32;;
78716;SDS011;68045;50.042;14.432;2023-09-12T22:05:39;13.55;;;10.25;;
78716;SDS011;68045;50.042;14.432;2023-09-12T22:09:40;14.32;;;10.43;;
78716;SDS011;68045;50.042;14.432;2023-09-12T22:13:41;13.10;;;10.23;;
78716;SDS011;68045;50.042;14.432;2023-09-12T22:17:42;16.65;;;9.73;;
78716;SDS011;68045;50.042;14.432;2023-09-12T22:21:43;12.73;;;10.02;;
78716;SDS011;68045;50.042;14.432;2023-09-12T22:25:43;12.45;;;9.80;;
78716;SDS011;68045;50.042;14.432;2023-09-12T22:29:44;14.05;;;10.38;;
78716;SDS011;68045;50.042;14.432;2023-09-12T22:33:45;13.52;;;9.95;;
78716;SDS011;68045;50.042;14.432;2023-09-12T22:37:46;13.52;;;10.15;;
78716;SDS011;68045;50.042;14.432;2023-09-12T22:41:47;13.30;;;9.82;;
78716;SDS011;68045;50.042;14.432;2023-09-12T22:45:47;13.18;;;10.13;;
78716;SDS011;68045;50.042;14.432;2023-09-12T22:49:51;12.25;;;10.82;;
78716;SDS011;68045;50.042;14.432;2023-09-12T22:53:52;16.05;;;10.15;;
78716;SDS011;68045;50.042;14.432;2023-09-12T22:57:53;13.23;;;10.77;;
78716;SDS011;68045;50.042;14.432;2023-09-12T23:01:54;17.27;;;11.07;;
78716;SDS011;68045;50.042;14.432;2023-09-12T23:05:54;13.18;;;10.43;;
78716;SDS011;68045;50.042;14.432;2023-09-12T23:09:55;19.90;;;10.88;;
78716;SDS011;68045;50.042;14.432;2023-09-12T23:13:56;13.43;;;10.98;;
78716;SDS011;68045;50.042;14.432;2023-09-12T23:17:57;15.57;;;10.02;;
78716;SDS011;68045;50.042;14.432;2023-09-12T23:21:58;14.45;;;10.68;;
78716;SDS011;68045;50.042;14.432;2023-09-12T23:25:58;16.20;;;10.90;;
78716;SDS011;68045;50.042;14.432;2023-09-12T23:29:59;14.48;;;10.98;;
78716;SDS011;68045;50.042;14.432;2023-09-12T23:34:00;15.68;;;11.05;;
78716;SDS011;68045;50.042;14.432;2023-09-12T23:38:01;16.58;;;11.43;;
78716;SDS011;68045;50.042;14.432;2023-09-12T23:42:01;15.10;;;10.95;;
78716;SDS011;68045;50.042;14.432;2023-09-12T23:46:03;14.73;;;10.93;;
78716;SDS011;68045;50.042;14.432;2023-09-12T23:50:03;17.77;;;10.70;;
78716;SDS011;68045;50.042;14.432;2023-09-12T23:54:05;19.33;;;11.60;;
78716;SDS011;68045;50.042;14.432;2023-09-12T23:58:08;15.13;;;11.45;;
